Terminal Aerodrome Forecast
Issued by NWS Sioux Falls, SD

Home | Current Version | Previous Version | Text Only | Print | Product List | Glossary On
Versions: 1 2 3 4 5 6 7 8 9 10 11 12
000
FTUS43 KFSD 011127
TAFSUX
TAF
KSUX 011127Z 0112/0212 04012G18KT P6SM -RA SCT010 OVC022
      TEMPO 0112/0116 BKN010
     FM011800 01013KT P6SM BKN025
     FM012100 01012KT P6SM BKN035
     FM020030 35006KT P6SM BKN040
     FM020600 35004KT P6SM SKC=

USA.gov is the U.S. government's official web portal to all federal, state and local government web resources and services.